Marlette, MI

7:50 AM EDT on May 30, 2015 (GMT -0400)
Marlette, MAC | | Change Station
CLOSE
Current Station
Personal Weather Station
Location: Marlette, MI
Elevation: 879 ft
Nearby Weather Stations

Elev 879 ft 43.31 °N, 83.09 °W | Updated 1 minute ago

Overcast
Overcast
70.1 °F
Feels Like 70.1 °F
N
6.0
Wind Variable Wind from SW
Gusts 12.0 mph

Today
High -- | Low -- °F
--% Chance of Precip.
Yesterday
High -- | Low -- °F
Precip. -- in
5:55 AM 9:03 PM
Waxing Gibbous, 90% visible
Pressure 29.96 in
Visibility 10.0 miles
Clouds Scattered Clouds 2100 ft
Scattered Clouds 4600 ft
Mostly Cloudy 5000 ft
Dew Point 66 °F
Humidity 88%
Rainfall 0.00 in
Snow Depth Not available.
UV 1 out of 12
Pollen 2.10 out of 12
Air Quality Not available.
Flu Activity Sporadic
METAR KD95 301133Z AUTO 23006KT 10SM SCT021 SCT046 BKN050 22/17 A2996 RMK AO2 T02220174

More Conditions Fewer Conditions

Pressure 29.96 in
Visibility 10.0 miles
Clouds Scattered Clouds 2100 ft
Scattered Clouds 4600 ft
Mostly Cloudy 5000 ft
Dew Point 66 °F
Humidity 88%
Rainfall 0.00 in
Snow Depth Not available.
UV 1 out of 12
Pollen 2.10 out of 12
Air Quality Not available.
Flu Activity Sporadic
METAR KD95 301133Z AUTO 23006KT 10SM SCT021 SCT046 BKN050 22/17 A2996 RMK AO2 T02220174

More Conditions Fewer Conditions

10-Day Weather Forecast

Almanac

Astronomy

May. 30, 2015 Rise Set
Actual Time
Civil Twilight
Nautical Twilight
Astronomical Twilight
Moon
Length of Visible Light
Length of Day
Tomorrow will be .
, % of the Moon is Illuminated

Today's Extremes

State Highs State Lows

Community

WunderPhotos

Upload Photos

1,825,484 photos uploaded!

WunderBlogs® & News

Nearby

Air Quality

  Air Quality AQ Index Pollutant
Not available.

Snow Depth

Station Depth Elevation

Earthquake Activity

City Distance Mag. Time & Date
Minimum magnitude displayed is 2.5.

Coastal Water Temperatures

Place Temperature

Stations

Nearby Weather Stations

Station Location Temp. Windchill Dew Point Humidity Wind Precip. Elev Updated Type